FNCA Airport Information

Runway Information
Runway 01 Length 8202 ft width 98 ft
Elevation 63 ft Threshold 0 ft Heading 360
Runway 19 Length 8202 ft Width 98 ft
Elevation 85 ft Threshold 0 ft Heading 180
Airport Frequencies
Type AFIS Name AFIS Frequency 118.3 MHZ
Airport Navaids
Type NDB Name Cabinda Frequency 280 KHZ
Type VOR-DME Name Cabinda Frequency 114300 KHZ
Airport Weather Information & NOTAM
ADDS - METARS form results

(0424 UTC 15 November 2018)
Data provider http://aviationweather.gov/metar/data/
 
Forecast for: FNCA (CABINDA , AO)
Text: TAF FNCA 142300Z 1500/1512 18005KT 8000 TS FEW015 FEW022CB BKN025
Forecast period: 0000 to 1200 UTC 15 November 2018
Forecast type: FROM: standard forecast or significant change
Winds: from the S (180 degrees) at 6 MPH (5 knots; 2.6 m/s)
Visibility: 5 miles (8 km)
Ceiling: 2500 feet AGL
Clouds: few clouds at 1500 feet AGL
few clouds at 2200 feet AGL
broken clouds at 2500 feet AGL
Weather: TS  (thunderstorm)
Text: TEMPO 1505/1512 25010KT 4000 TSRA SCT008 BKN020 FEW022CB
Forecast period: 0500 to 1200 UTC 15 November 2018
Forecast type: TEMPORARY: The following changes expected for less than half the time period
Winds: from the WSW (250 degrees) at 12 MPH (10 knots; 5.1 m/s)
Visibility: 2.49 miles (4.01 km)
Ceiling: 2000 feet AGL
Clouds: scattered clouds at 800 feet AGL
broken clouds at 2000 feet AGL
few clouds at 2200 feet AGL
Weather: TSRA  (rain associated with thunderstorm(s))